Time;durP1;ratioP1;P1;durP2;ratioP2;P2;SDS_P1;SDS_P2;PMS_P1;PMS_P2;Temp;Humidity;BMP_temperature;BMP_pressure;BME280_temperature;BME280_humidity;BME280_pressure;Samples;Min_cycle;Max_cycle;Signal;HPM_P1;HPM_P2
2022/04/09 00:01:32;;;;;;;4.38;2.72;;;;;;;4.17;82.41;98076.84;10107272;29;20052;-73
2022/04/09 00:06:34;;;;;;;1.92;1.77;;;;;;;4.13;83.37;98097.81;10106691;29;20101;-71
2022/04/09 00:11:36;;;;;;;1.73;1.25;;;;;;;4.43;78.39;98103.66;10109838;29;20438;-72
2022/04/09 00:16:38;;;;;;;2.60;1.58;;;;;;;4.43;78.72;98108.84;10105428;29;20516;-72
2022/04/09 00:21:40;;;;;;;1.95;1.60;;;;;;;4.47;78.32;98106.06;10107253;29;20048;-72
2022/04/09 00:26:42;;;;;;;1.85;1.70;;;;;;;4.31;80.71;98110.16;10106217;29;20100;-72
2022/04/09 00:31:44;;;;;;;2.45;2.05;;;;;;;4.19;80.94;98111.44;10109191;29;20583;-72
2022/04/09 00:36:46;;;;;;;2.75;2.05;;;;;;;4.24;81.32;98103.47;10094274;29;20040;-72
2022/04/09 00:41:49;;;;;;;3.10;2.80;;;;;;;3.93;83.78;98122.78;10106307;29;20073;-72
2022/04/09 00:46:52;;;;;;;3.15;2.72;;;;;;;4.31;79.87;98110.16;10104452;29;20091;-72
2022/04/09 00:51:55;;;;;;;2.30;2.10;;;;;;;4.28;80.31;98125.84;10102858;29;20049;-72
2022/04/09 00:57:05;;;;;;;2.80;2.50;;;;;;;4.34;80.32;98125.66;10105814;29;20042;-72
2022/04/09 01:02:06;;;;;;;2.55;2.35;;;;;;;4.19;80.62;98129.63;10105505;29;20057;-72
2022/04/09 01:07:09;;;;;;;7.78;2.80;;;;;;;4.31;79.85;98133.56;10101752;29;20060;-71
2022/04/09 01:12:14;;;;;;;2.70;2.50;;;;;;;4.02;81.69;98135.44;10102450;29;20048;-73
2022/04/09 01:17:16;;;;;;;5.05;2.50;;;;;;;4.03;81.90;98129.38;10131132;23;20573;-71
2022/04/09 01:22:18;;;;;;;3.40;2.90;;;;;;;4.09;81.04;98127.44;10109349;29;20055;-70
2022/04/09 01:27:20;;;;;;;2.47;2.25;;;;;;;4.00;80.36;98145.06;10104351;29;20043;-71
2022/04/09 01:32:21;;;;;;;3.13;2.60;;;;;;;4.05;81.20;98145.75;10103763;29;20132;-71
2022/04/09 01:37:23;;;;;;;4.03;3.72;;;;;;;4.01;82.07;98158.91;10103644;29;20048;-72
2022/04/09 01:42:26;;;;;;;3.42;3.13;;;;;;;3.96;82.04;98158.22;10103511;29;20044;-71
2022/04/09 01:47:30;;;;;;;3.63;2.83;;;;;;;3.88;82.15;98176.69;10102408;29;20078;-72
2022/04/09 01:52:32;;;;;;;4.32;3.92;;;;;;;3.98;81.69;98188.44;10101731;29;20053;-72
2022/04/09 01:57:34;;;;;;;3.50;3.13;;;;;;;3.79;82.46;98198.63;10104394;29;20041;-73
2022/04/09 02:02:40;;;;;;;4.72;4.18;;;;;;;3.76;81.91;98201.34;10101072;29;20075;-71
2022/04/09 02:07:43;;;;;;;4.15;3.70;;;;;;;3.84;81.08;98214.06;10100554;29;20049;-72
2022/04/09 02:12:46;;;;;;;5.25;4.75;;;;;;;3.87;80.57;98216.56;10100816;29;20052;-72
2022/04/09 02:17:48;;;;;;;4.72;4.32;;;;;;;3.86;80.47;98224.44;10102138;29;20060;-73
2022/04/09 02:22:50;;;;;;;5.50;5.00;;;;;;;3.81;80.87;98227.19;10102633;29;20073;-71
2022/04/09 02:27:52;;;;;;;5.05;4.53;;;;;;;3.92;80.02;98232.84;10100800;29;20051;-71
2022/04/09 02:32:56;;;;;;;4.57;4.18;;;;;;;3.80;80.22;98248.84;10099913;29;20053;-72
2022/04/09 02:38:02;;;;;;;6.80;5.47;;;;;;;3.68;81.36;98255.31;10101512;29;20463;-71
2022/04/09 02:43:08;;;;;;;5.90;5.40;;;;;;;3.69;82.06;98266.56;10100925;29;20056;-72
2022/04/09 02:48:10;;;;;;;7.43;5.47;;;;;;;3.74;81.90;98278.50;10084326;29;20045;-71
2022/04/09 02:53:12;;;;;;;6.65;5.93;;;;;;;3.68;81.92;98299.50;10101857;29;20049;-72
2022/04/09 02:58:14;;;;;;;6.30;5.80;;;;;;;3.63;82.04;98310.91;10100316;29;20065;-72
2022/04/09 03:03:19;;;;;;;6.70;6.10;;;;;;;3.82;81.53;98324.19;10084980;29;20135;-73
2022/04/09 03:08:22;;;;;;;6.97;6.38;;;;;;;3.78;82.04;98331.22;10099841;29;20143;-72
2022/04/09 03:13:24;;;;;;;7.22;6.53;;;;;;;3.79;81.66;98333.78;10101077;29;20113;-71
2022/04/09 03:18:25;;;;;;;7.88;7.20;;;;;;;3.80;81.66;98351.06;10100486;29;20064;-72
2022/04/09 03:23:27;;;;;;;8.30;7.53;;;;;;;3.78;82.24;98365.88;10099874;29;20053;-73
2022/04/09 03:28:32;;;;;;;8.38;7.63;;;;;;;3.90;81.86;98382.84;10085421;29;20041;-72
2022/04/09 03:33:35;;;;;;;7.53;6.93;;;;;;;3.96;81.01;98379.19;10097973;29;20053;-72
2022/04/09 03:38:43;;;;;;;8.05;7.45;;;;;;;4.12;79.79;98392.53;10098777;29;20076;-73
2022/04/09 03:43:48;;;;;;;7.78;7.15;;;;;;;4.05;79.77;98412.69;10098529;29;20068;-71
2022/04/09 03:48:59;;;;;;;8.48;7.78;;;;;;;3.89;80.79;98417.50;10100240;29;20037;-72
2022/04/09 03:54:02;;;;;;;8.75;8.05;;;;;;;3.75;81.57;98427.47;10082081;29;20100;-71
2022/04/09 03:59:04;;;;;;;8.45;7.85;;;;;;;3.81;80.80;98435.09;10097749;29;20037;-72
2022/04/09 04:04:06;;;;;;;9.13;8.23;;;;;;;3.94;80.49;98457.22;10098049;29;20057;-72
2022/04/09 04:09:08;;;;;;;9.73;8.75;;;;;;;3.84;81.06;98468.78;10081232;29;20056;-71
2022/04/09 04:14:11;;;;;;;11.68;8.60;;;;;;;3.87;80.29;98486.06;10097516;29;20141;-71
2022/04/09 04:19:13;;;;;;;9.30;7.18;;;;;;;3.98;79.57;98508.22;10098134;29;20045;-72
2022/04/09 04:24:15;;;;;;;7.88;7.18;;;;;;;3.85;79.75;98532.91;10097904;29;20422;-71
2022/04/09 04:29:17;;;;;;;8.90;6.30;;;;;;;3.96;78.99;98536.03;10105205;29;20126;-73
2022/04/09 04:34:20;;;;;;;7.35;6.53;;;;;;;3.86;79.17;98549.34;10103470;29;20072;-72
2022/04/09 04:39:21;;;;;;;9.68;6.30;;;;;;;3.73;80.34;98577.41;10105344;29;20064;-72
2022/04/09 04:44:26;;;;;;;9.73;4.85;;;;;;;3.83;79.17;98578.84;10104004;29;20404;-72
2022/04/09 04:49:32;;;;;;;12.07;6.00;;;;;;;3.84;78.88;98592.69;10103568;29;20507;-72
2022/04/09 04:54:38;;;;;;;9.23;4.60;;;;;;;3.67;79.93;98614.78;10103151;29;20076;-72
2022/04/09 04:59:40;;;;;;;7.75;4.70;;;;;;;3.92;79.45;98621.94;10103844;29;20041;-73
2022/04/09 05:04:42;;;;;;;7.32;4.18;;;;;;;4.04;78.80;98642.41;10087699;29;20045;-71
2022/04/09 05:09:44;;;;;;;15.05;5.38;;;;;;;3.88;79.29;98651.50;10103766;29;20396;-72
2022/04/09 05:14:47;;;;;;;6.63;4.55;;;;;;;3.93;79.64;98658.28;10102032;29;20105;-73
2022/04/09 05:19:52;;;;;;;15.43;4.40;;;;;;;4.11;77.24;98666.47;10101864;29;20511;-72
2022/04/09 05:24:55;;;;;;;8.15;3.92;;;;;;;4.06;78.04;98687.41;10102166;29;20105;-72
2022/04/09 05:29:57;;;;;;;5.85;3.67;;;;;;;4.10;77.40;98686.44;10103207;29;20049;-72
2022/04/09 05:35:08;;;;;;;5.28;3.53;;;;;;;4.18;75.88;98709.63;10102594;29;20053;-73
2022/04/09 05:40:11;;;;;;;5.82;2.92;;;;;;;4.35;74.82;98712.63;10102424;29;20105;-72
2022/04/09 05:45:14;;;;;;;5.38;4.00;;;;;;;4.28;74.73;98734.50;10100998;29;20056;-73
2022/04/09 05:50:17;;;;;;;7.43;4.60;;;;;;;4.39;76.12;98744.63;10099985;29;20074;-73
2022/04/09 05:55:19;;;;;;;6.95;4.80;;;;;;;4.52;74.07;98757.25;10101789;29;20057;-72
2022/04/09 06:00:21;;;;;;;7.45;4.68;;;;;;;4.67;74.36;98760.31;10100641;29;20468;-73
2022/04/09 06:05:36;;;;;;;8.30;4.28;;;;;;;4.75;74.19;98767.03;10100607;29;20045;-72
2022/04/09 06:10:44;;;;;;;5.80;3.38;;;;;;;4.84;73.11;98784.13;10100232;29;20053;-72
2022/04/09 06:15:46;;;;;;;10.65;5.45;;;;;;;4.85;72.92;98785.81;10101293;29;20140;-72
2022/04/09 06:20:53;;;;;;;6.90;3.28;;;;;;;5.16;69.74;98801.41;10100607;29;20056;-72
2022/04/09 06:25:55;;;;;;;4.65;2.70;;;;;;;5.22;70.42;98803.84;10099321;29;20045;-72
2022/04/09 06:31:02;;;;;;;;;;;;;;;5.10;69.40;98817.25;10101327;29;20109;-72
2022/04/09 06:36:05;;;;;;;5.43;1.60;;;;;;;5.12;69.29;98825.00;10100535;29;20450;-73
2022/04/09 06:41:07;;;;;;;4.72;1.50;;;;;;;5.22;68.45;98824.69;10085627;29;20052;-71
2022/04/09 06:46:13;;;;;;;4.70;2.30;;;;;;;5.28;69.23;98842.75;10085613;29;20377;-73
2022/04/09 06:51:39;;;;;;;6.82;2.53;;;;;;;5.40;69.56;98859.78;10083523;29;20629;-73
2022/04/09 06:56:58;;;;;;;5.88;1.95;;;;;;;5.79;65.80;98867.28;10100317;29;20511;-72
2022/04/09 07:02:03;;;;;;;4.28;1.70;;;;;;;5.98;65.69;98875.44;10101395;29;20117;-72
2022/04/09 07:07:05;;;;;;;6.85;2.45;;;;;;;6.03;65.86;98887.41;10101660;29;20045;-73
2022/04/09 07:12:08;;;;;;;4.30;2.72;;;;;;;5.92;66.45;98892.09;10100601;29;20543;-73
2022/04/09 07:17:09;;;;;;;4.70;3.50;;;;;;;5.82;66.51;98885.44;10098453;29;20049;-73
2022/04/09 07:22:11;;;;;;;6.45;5.03;;;;;;;5.76;67.97;98889.09;10100428;29;20049;-73
2022/04/09 07:27:12;;;;;;;10.02;7.60;;;;;;;5.13;73.60;98923.94;10100221;29;20110;-72
2022/04/09 07:32:14;;;;;;;7.55;6.85;;;;;;;4.38;78.57;98938.88;10099649;29;20057;-72
2022/04/09 07:37:16;;;;;;;5.07;4.60;;;;;;;3.63;82.58;98940.63;10102473;29;20055;-73
2022/04/09 07:42:19;;;;;;;10.25;9.25;;;;;;;3.86;84.07;98958.31;10100083;29;20065;-72
2022/04/09 07:47:20;;;;;;;11.88;9.52;;;;;;;4.36;83.44;98958.03;10100634;29;20053;-72
2022/04/09 07:52:22;;;;;;;9.40;8.35;;;;;;;4.83;82.39;98953.41;10099764;29;20053;-73
2022/04/09 07:57:25;;;;;;;9.45;8.70;;;;;;;4.80;80.41;98972.56;10100272;29;20045;-73
2022/04/09 08:02:26;;;;;;;8.90;8.27;;;;;;;4.59;82.03;98981.75;10104956;29;20512;-73
2022/04/09 08:07:28;;;;;;;10.75;9.88;;;;;;;4.20;84.83;98992.19;10107163;29;20431;-73
2022/04/09 08:12:30;;;;;;;13.57;12.48;;;;;;;4.07;86.03;98988.16;10106486;29;20057;-73
2022/04/09 08:17:31;;;;;;;14.40;13.20;;;;;;;4.23;87.52;98993.88;10107590;29;20105;-73
2022/04/09 08:22:33;;;;;;;10.50;9.60;;;;;;;4.61;86.47;98999.94;10105904;29;20120;-73
2022/04/09 08:27:35;;;;;;;11.68;10.68;;;;;;;4.75;87.84;99006.53;10105154;29;20105;-74
2022/04/09 08:32:37;;;;;;;10.77;9.80;;;;;;;5.37;86.64;99007.56;10105575;29;20041;-73
2022/04/09 08:37:40;;;;;;;10.40;9.40;;;;;;;5.77;83.92;99013.34;10105497;29;20049;-74
2022/04/09 08:42:43;;;;;;;9.30;6.05;;;;;;;6.38;76.60;99007.25;10105991;29;20472;-73
2022/04/09 08:47:45;;;;;;;6.93;3.75;;;;;;;6.34;72.71;99016.09;10104822;29;20124;-72
2022/04/09 08:52:46;;;;;;;5.80;2.50;;;;;;;6.22;67.90;99025.13;10106019;29;20145;-72
2022/04/09 08:57:48;;;;;;;4.95;2.58;;;;;;;6.29;68.36;99021.44;10103327;29;20079;-73
2022/04/09 09:02:58;;;;;;;4.45;2.10;;;;;;;6.17;69.04;99021.81;10101189;29;20526;-73
2022/04/09 09:08:01;;;;;;;8.27;2.50;;;;;;;5.98;66.22;99019.75;10101485;29;20101;-73
2022/04/09 09:13:12;;;;;;;3.47;1.60;;;;;;;6.62;64.71;99016.06;10100859;29;20423;-73
2022/04/09 09:18:20;;;;;;;3.95;1.67;;;;;;;7.37;60.01;99005.72;10103072;29;20140;-73
2022/04/09 09:23:32;;;;;;;5.60;1.58;;;;;;;6.51;63.61;99022.47;10102931;29;20052;-75
2022/04/09 09:28:36;;;;;;;2.80;1.42;;;;;;;5.98;66.99;99027.56;10102537;29;20100;-72
2022/04/09 09:33:38;;;;;;;3.42;1.83;;;;;;;6.65;67.34;99015.97;10101817;29;20128;-75
2022/04/09 09:39:03;;;;;;;3.25;1.70;;;;;;;6.56;64.86;99028.41;10104078;29;20078;-73
2022/04/09 09:44:06;;;;;;;6.50;2.50;;;;;;;6.02;66.92;99039.63;10103805;29;20056;-73
2022/04/09 09:49:08;;;;;;;3.25;2.67;;;;;;;6.24;71.49;99033.75;10103084;29;20053;-73
2022/04/09 09:54:12;;;;;;;4.38;2.45;;;;;;;7.07;68.67;99031.97;10102333;29;20044;-72
2022/04/09 09:59:14;;;;;;;2.90;1.50;;;;;;;7.70;65.70;99032.41;10084885;29;20559;-74
2022/04/09 10:04:16;;;;;;;1.45;0.75;;;;;;;6.88;61.20;99047.41;10101926;29;20067;-73
2022/04/09 10:09:19;;;;;;;1.70;1.00;;;;;;;6.53;62.38;99035.47;10101790;29;20045;-73
2022/04/09 10:14:23;;;;;;;2.83;1.10;;;;;;;7.16;63.30;99025.59;10101334;29;20464;-72
2022/04/09 10:19:26;;;;;;;3.72;1.05;;;;;;;7.99;62.76;99024.34;10100692;29;20500;-74
2022/04/09 10:24:28;;;;;;;5.18;1.13;;;;;;;7.77;58.77;99034.75;10100703;29;20449;-74
2022/04/09 10:29:47;;;;;;;3.13;1.20;;;;;;;8.22;61.04;99064.50;10100359;29;20060;-73
2022/04/09 10:34:50;;;;;;;1.65;1.05;;;;;;;7.40;64.92;99068.34;10100322;29;20207;-73
2022/04/09 10:39:55;;;;;;;1.83;0.88;;;;;;;6.73;67.93;99100.13;10100101;29;20037;-73
2022/04/09 10:44:56;;;;;;;2.92;1.05;;;;;;;7.40;66.97;99068.34;10098323;29;20045;-73
2022/04/09 10:50:01;;;;;;;2.05;1.35;;;;;;;8.43;63.66;99065.50;10098616;29;20053;-74
2022/04/09 10:55:09;;;;;;;4.32;1.30;;;;;;;9.22;60.93;99082.44;10098926;29;20053;-73
2022/04/09 11:00:33;;;;;;;2.45;1.35;;;;;;;6.99;67.73;99172.47;10097910;29;20457;-74
2022/04/09 11:05:34;;;;;;;1.60;0.70;;;;;;;4.84;75.60;99161.66;10100282;29;20049;-73
2022/04/09 11:10:36;;;;;;;2.13;0.98;;;;;;;4.46;80.21;99163.34;10100426;29;20053;-73
2022/04/09 11:15:41;;;;;;;1.75;1.30;;;;;;;4.40;82.16;99153.06;10100028;29;20049;-73
2022/04/09 11:20:45;;;;;;;2.33;1.02;;;;;;;4.60;80.86;99128.34;10099845;29;20060;-73
2022/04/09 11:25:47;;;;;;;1.85;1.30;;;;;;;5.85;81.76;99119.22;10100239;29;20488;-73
2022/04/09 11:30:58;;;;;;;2.72;1.30;;;;;;;7.05;75.99;99105.22;10098983;29;20081;-73
2022/04/09 11:36:00;;;;;;;2.80;1.70;;;;;;;7.97;73.30;99093.34;10104496;29;20510;-73
2022/04/09 11:41:19;;;;;;;3.28;1.50;;;;;;;8.78;68.45;99106.91;10106790;29;20052;-73
2022/04/09 11:46:21;;;;;;;1.63;1.05;;;;;;;8.61;68.02;99118.94;10105582;29;20049;-74
2022/04/09 11:51:22;;;;;;;1.45;0.80;;;;;;;7.19;68.49;99180.56;10106391;29;20170;-72
2022/04/09 11:56:24;;;;;;;1.58;1.00;;;;;;;5.49;74.16;99179.22;10105595;29;20105;-73
2022/04/09 12:01:25;;;;;;;1.60;1.20;;;;;;;4.89;77.60;99161.56;10107092;29;20056;-72
2022/04/09 12:06:27;;;;;;;3.22;1.80;;;;;;;5.01;80.77;99138.69;10106233;29;20115;-72
2022/04/09 12:11:29;;;;;;;1.70;1.35;;;;;;;5.86;77.97;99136.56;10107651;29;20053;-72
2022/04/09 12:16:37;;;;;;;2.30;1.15;;;;;;;6.92;74.04;99158.75;10105132;29;20044;-73
2022/04/09 12:21:39;;;;;;;3.03;1.00;;;;;;;6.74;71.58;99164.53;10104872;29;20053;-74
2022/04/09 12:26:43;;;;;;;1.67;1.27;;;;;;;6.67;72.42;99163.84;10103375;29;20054;-74
2022/04/09 12:31:48;;;;;;;1.33;0.70;;;;;;;6.68;65.67;99170.78;10104509;29;20045;-74
2022/04/09 12:37:05;;;;;;;0.60;0.40;;;;;;;6.64;63.21;99171.81;10105734;29;20105;-74
2022/04/09 12:42:06;;;;;;;1.77;0.73;;;;;;;6.77;64.22;99162.69;10104975;29;20076;-74
2022/04/09 12:47:08;;;;;;;1.23;0.80;;;;;;;7.31;66.99;99153.19;10103845;29;20308;-73
2022/04/09 12:52:12;;;;;;;1.27;0.77;;;;;;;7.67;64.01;99131.94;10104023;29;20071;-73
2022/04/09 12:57:14;;;;;;;2.05;0.80;;;;;;;8.00;62.44;99125.50;10103044;29;20468;-74
2022/04/09 13:02:16;;;;;;;1.25;0.70;;;;;;;8.45;59.76;99121.28;10103636;29;20496;-73
2022/04/09 13:07:18;;;;;;;5.47;1.00;;;;;;;8.51;58.56;99121.91;10103691;29;20087;-74
2022/04/09 13:12:20;;;;;;;3.00;0.80;;;;;;;9.04;57.41;99126.00;10103609;29;20136;-73
2022/04/09 13:17:21;;;;;;;1.55;0.80;;;;;;;8.64;55.73;99140.66;10115795;23;20037;-69
2022/04/09 13:22:23;;;;;;;3.28;1.20;;;;;;;8.42;52.88;99145.00;10070362;29;20094;-69
2022/04/09 13:27:25;;;;;;;1.55;0.88;;;;;;;8.67;54.76;99139.66;10062706;29;20473;-69
2022/04/09 13:32:26;;;;;;;1.33;0.80;;;;;;;8.87;54.52;99138.91;10063070;29;20052;-69
2022/04/09 13:37:28;;;;;;;1.70;0.75;;;;;;;8.90;51.50;99131.78;10064289;29;20050;-70
2022/04/09 13:42:30;;;;;;;2.10;0.80;;;;;;;8.84;52.37;99127.59;10062622;29;20469;-70
2022/04/09 13:47:32;;;;;;;2.17;0.90;;;;;;;9.01;51.60;99126.94;10062390;29;20113;-70
2022/04/09 13:52:34;;;;;;;3.70;1.25;;;;;;;9.16;52.70;99114.13;10060967;29;20054;-70
2022/04/09 13:57:35;;;;;;;2.25;0.80;;;;;;;9.42;48.00;99119.16;10060828;29;20102;-70
2022/04/09 14:02:39;;;;;;;2.13;0.70;;;;;;;9.08;48.59;99117.09;10062217;29;20461;-70
2022/04/09 14:07:41;;;;;;;1.52;0.80;;;;;;;8.97;52.23;99129.75;10059927;29;20049;-70
2022/04/09 14:12:43;;;;;;;2.00;0.50;;;;;;;8.97;48.99;99141.09;10061295;29;20420;-69
2022/04/09 14:17:45;;;;;;;2.05;0.70;;;;;;;9.14;49.23;99131.72;10061071;29;20073;-71
2022/04/09 14:22:46;;;;;;;1.02;0.77;;;;;;;9.13;49.27;99136.09;10061399;29;20049;-70
2022/04/09 14:27:48;;;;;;;1.52;0.73;;;;;;;8.92;51.31;99161.38;10060832;29;20078;-70
2022/04/09 14:32:50;;;;;;;2.38;2.17;;;;;;;8.47;53.22;99157.00;10060769;29;20128;-70
2022/04/09 14:37:51;;;;;;;1.30;0.93;;;;;;;8.55;53.22;99168.03;10060885;29;20101;-70
2022/04/09 14:42:56;;;;;;;2.08;1.73;;;;;;;8.40;53.73;99158.13;10060649;29;20101;-70
2022/04/09 14:48:04;;;;;;;2.20;0.80;;;;;;;8.33;55.96;99154.00;10061078;29;20045;-70
2022/04/09 14:53:06;;;;;;;2.38;1.83;;;;;;;8.18;56.82;99163.25;10060312;29;20049;-70
2022/04/09 14:58:08;;;;;;;0.95;0.93;;;;;;;7.90;58.18;99160.75;10060138;29;20476;-70
2022/04/09 15:03:11;;;;;;;1.88;1.00;;;;;;;7.76;58.96;99169.09;10059254;29;20534;-70
2022/04/09 15:08:12;;;;;;;1.35;1.17;;;;;;;7.70;59.27;99195.47;10059580;29;20045;-71
2022/04/09 15:13:15;;;;;;;0.80;0.70;;;;;;;6.52;62.76;99273.97;10058379;29;20058;-69
2022/04/09 15:18:17;;;;;;;1.42;0.60;;;;;;;5.01;67.83;99266.34;10059599;29;20049;-67
2022/04/09 15:23:19;;;;;;;1.13;0.60;;;;;;;4.71;70.35;99247.00;10060354;29;20408;-67
2022/04/09 15:28:20;;;;;;;1.30;0.45;;;;;;;5.06;69.71;99294.88;10060179;29;20050;-66
2022/04/09 15:33:22;;;;;;;1.85;1.10;;;;;;;5.14;73.43;99347.69;10058770;29;20049;-66
2022/04/09 15:38:24;;;;;;;3.53;1.33;;;;;;;4.81;78.98;99360.47;10059055;29;20050;-67
2022/04/09 15:43:26;;;;;;;2.15;1.45;;;;;;;4.73;81.46;99382.34;10058494;29;20053;-68
2022/04/09 15:48:28;;;;;;;2.03;1.30;;;;;;;4.52;83.43;99373.19;10058023;29;20050;-68
2022/04/09 15:53:32;;;;;;;1.05;0.70;;;;;;;4.35;83.50;99316.22;10059598;29;20057;-68
2022/04/09 15:58:33;;;;;;;1.52;0.60;;;;;;;4.95;82.31;99302.91;10059229;29;20049;-68
2022/04/09 16:03:36;;;;;;;0.90;0.70;;;;;;;5.20;80.51;99311.06;10059806;29;20109;-68
2022/04/09 16:08:38;;;;;;;2.75;1.80;;;;;;;5.25;77.76;99295.34;10059302;29;20504;-68
2022/04/09 16:13:40;;;;;;;2.42;1.00;;;;;;;5.73;74.24;99297.72;10057604;29;20050;-68
2022/04/09 16:18:44;;;;;;;2.83;1.67;;;;;;;5.93;71.28;99311.19;10058987;29;20054;-68
2022/04/09 16:23:49;;;;;;;3.53;1.42;;;;;;;5.93;69.52;99328.56;10064091;29;20050;-69
2022/04/09 16:28:50;;;;;;;4.50;2.65;;;;;;;6.00;68.91;99338.81;10065438;29;20049;-69
2022/04/09 16:33:52;;;;;;;3.88;2.05;;;;;;;5.83;69.82;99373.06;10065365;29;20057;-69
2022/04/09 16:38:53;;;;;;;1.98;1.25;;;;;;;5.53;72.59;99385.09;10064056;29;20057;-69
2022/04/09 16:43:56;;;;;;;2.47;0.70;;;;;;;5.19;72.69;99384.91;10066273;29;20581;-69
2022/04/09 16:48:58;;;;;;;0.93;0.47;;;;;;;4.92;73.09;99385.47;10065775;29;20109;-69
2022/04/09 16:54:00;;;;;;;1.08;0.60;;;;;;;4.86;74.04;99373.41;10064916;29;20080;-69
2022/04/09 16:59:01;;;;;;;1.05;0.63;;;;;;;4.85;74.20;99343.03;10048064;29;20069;-69
2022/04/09 17:04:03;;;;;;;0.70;0.38;;;;;;;5.21;70.93;99330.16;10063731;29;20057;-69
2022/04/09 17:09:05;;;;;;;1.38;0.60;;;;;;;5.28;70.78;99347.41;10063049;29;20053;-69
2022/04/09 17:14:06;;;;;;;0.77;0.40;;;;;;;5.40;69.60;99364.50;10062172;29;20151;-69
2022/04/09 17:19:08;;;;;;;0.75;0.30;;;;;;;5.36;69.52;99381.09;10062519;29;20454;-69
2022/04/09 17:24:10;;;;;;;0.80;0.50;;;;;;;5.27;70.31;99380.41;10063441;29;20496;-69
2022/04/09 17:29:12;;;;;;;1.38;0.57;;;;;;;4.98;70.61;99400.97;10063965;29;20038;-70
2022/04/09 17:34:13;;;;;;;0.88;0.50;;;;;;;4.86;72.24;99398.59;10063517;29;20049;-69
2022/04/09 17:39:15;;;;;;;1.08;0.80;;;;;;;4.67;73.80;99400.69;10062928;29;20412;-69
2022/04/09 17:44:16;;;;;;;1.83;0.90;;;;;;;4.49;74.95;99410.53;10063590;29;20057;-70
2022/04/09 17:49:18;;;;;;;1.70;0.80;;;;;;;4.36;75.30;99413.38;10063504;29;20045;-70
2022/04/09 17:54:20;;;;;;;1.33;0.98;;;;;;;4.32;75.69;99429.91;10062852;29;20082;-70
2022/04/09 17:59:21;;;;;;;1.52;0.85;;;;;;;4.23;76.28;99425.72;10062600;29;20461;-70
2022/04/09 18:04:23;;;;;;;2.65;1.65;;;;;;;4.15;76.00;99432.75;10062473;29;20049;-70
2022/04/09 18:09:24;;;;;;;2.50;0.80;;;;;;;4.11;76.61;99438.91;10062587;29;20053;-69
2022/04/09 18:14:26;;;;;;;1.13;0.80;;;;;;;4.16;76.45;99439.69;10062341;29;20432;-69
2022/04/09 18:19:28;;;;;;;2.28;1.00;;;;;;;4.08;77.08;99438.97;10062090;29;20057;-69
2022/04/09 18:24:34;;;;;;;1.90;0.98;;;;;;;4.06;76.84;99449.38;10061996;29;20102;-69
2022/04/09 18:29:35;;;;;;;1.55;1.00;;;;;;;3.97;77.63;99465.97;10059921;29;20061;-70
2022/04/09 18:34:37;;;;;;;2.47;1.17;;;;;;;3.94;77.99;99480.75;10061347;29;20111;-70
2022/04/09 18:39:38;;;;;;;1.58;0.95;;;;;;;3.83;78.48;99498.25;10059849;29;20058;-70
2022/04/09 18:44:40;;;;;;;1.55;1.23;;;;;;;3.91;77.43;99512.88;10043322;29;20053;-70
2022/04/09 18:49:41;;;;;;;1.75;1.20;;;;;;;3.79;77.97;99518.22;10056468;29;20049;-70
2022/04/09 18:54:43;;;;;;;1.63;1.00;;;;;;;3.89;77.06;99524.16;10056479;29;20053;-70
2022/04/09 18:59:44;;;;;;;2.30;0.95;;;;;;;3.88;76.60;99525.88;10057247;29;20097;-70
2022/04/09 19:04:46;;;;;;;1.35;1.25;;;;;;;3.82;77.52;99538.13;10058856;29;20056;-71
2022/04/09 19:09:47;;;;;;;1.38;1.20;;;;;;;3.95;76.63;99534.50;10060885;29;20049;-70
2022/04/09 19:14:49;;;;;;;1.50;0.80;;;;;;;3.93;75.80;99551.84;10061391;29;20047;-69
2022/04/09 19:19:53;;;;;;;1.20;0.60;;;;;;;3.96;74.58;99531.84;10132335;23;20072;-80
2022/04/09 19:24:54;;;;;;;1.27;0.80;;;;;;;4.02;74.27;99551.72;10147298;29;20079;-79
2022/04/09 19:29:56;;;;;;;1.52;0.73;;;;;;;4.02;74.41;99555.16;10140289;29;20101;-80
2022/04/09 19:34:58;;;;;;;1.92;0.77;;;;;;;3.87;75.06;99568.38;10121973;29;20044;-78
2022/04/09 19:40:02;;;;;;;1.67;0.73;;;;;;;3.86;75.75;99579.66;10115613;29;20116;-79
2022/04/09 19:45:05;;;;;;;1.50;0.70;;;;;;;3.82;75.93;99585.78;10118693;29;20112;-80
2022/04/09 19:50:07;;;;;;;0.82;0.70;;;;;;;3.74;76.56;99579.81;10122116;29;20049;-80
2022/04/09 19:55:09;;;;;;;1.35;0.70;;;;;;;3.67;76.83;99588.53;10124357;29;20065;-80
2022/04/09 20:00:12;;;;;;;1.02;0.70;;;;;;;3.47;78.21;99581.81;10129954;29;20048;-79
2022/04/09 20:05:14;;;;;;;2.78;0.82;;;;;;;3.56;78.07;99588.66;10130362;29;20082;-80
2022/04/09 20:10:16;;;;;;;1.10;0.70;;;;;;;3.49;78.31;99598.25;10131825;29;20073;-81
2022/04/09 20:15:18;;;;;;;1.25;0.90;;;;;;;3.48;78.83;99591.34;10127311;29;20056;-79
2022/04/09 20:20:19;;;;;;;1.67;0.90;;;;;;;3.55;78.47;99597.34;10126749;29;20064;-80
2022/04/09 20:25:21;;;;;;;1.33;0.77;;;;;;;3.40;79.03;99600.94;10127057;29;20057;-81
2022/04/09 20:30:26;;;;;;;0.80;0.80;;;;;;;3.41;79.00;99599.19;10125401;29;20049;-82
2022/04/09 20:35:32;;;;;;;1.83;0.80;;;;;;;3.47;79.03;99597.41;10128520;29;20045;-79
2022/04/09 20:40:34;;;;;;;1.02;0.93;;;;;;;3.41;78.61;99605.28;10128539;29;20154;-79
2022/04/09 20:45:36;;;;;;;1.17;0.70;;;;;;;3.48;78.22;99611.25;10126442;29;20090;-81
2022/04/09 20:50:38;;;;;;;1.25;0.80;;;;;;;3.45;77.66;99614.78;10122703;29;20048;-80
2022/04/09 20:55:40;;;;;;;1.55;0.70;;;;;;;3.49;77.34;99621.63;10115173;29;20089;-78
2022/04/09 21:00:42;;;;;;;2.47;1.00;;;;;;;3.54;77.18;99632.88;10117470;29;20152;-80
2022/04/09 21:05:44;;;;;;;1.92;0.80;;;;;;;3.47;77.54;99633.78;10124567;29;20059;-80
2022/04/09 21:10:46;;;;;;;2.17;0.80;;;;;;;3.42;77.93;99645.09;10131139;29;20542;-78
2022/04/09 21:15:48;;;;;;;0.90;0.70;;;;;;;3.34;77.95;99649.50;10131440;29;20049;-80
2022/04/09 21:20:50;;;;;;;1.90;0.80;;;;;;;3.31;77.84;99655.56;10132640;29;20073;-79
2022/04/09 21:25:53;;;;;;;1.02;0.55;;;;;;;3.23;78.40;99675.56;10128114;29;20053;-79
2022/04/09 21:30:55;;;;;;;0.82;0.75;;;;;;;3.19;78.74;99672.16;10134169;29;20049;-80
2022/04/09 21:35:57;;;;;;;1.58;0.75;;;;;;;3.19;78.69;99674.75;10142140;29;20087;-80
2022/04/09 21:40:59;;;;;;;0.98;0.73;;;;;;;3.05;79.24;99684.34;10134085;29;20077;-78
2022/04/09 21:46:00;;;;;;;2.80;0.82;;;;;;;3.08;79.51;99689.53;10136586;29;20140;-78
2022/04/09 21:51:02;;;;;;;1.08;0.80;;;;;;;3.11;79.11;99699.03;10132138;29;20049;-79
2022/04/09 21:56:04;;;;;;;1.20;0.98;;;;;;;2.96;79.74;99708.63;10117971;29;20056;-80
2022/04/09 22:01:06;;;;;;;2.08;1.10;;;;;;;2.97;79.56;99712.97;10119568;29;20045;-78
2022/04/09 22:06:07;;;;;;;1.35;1.02;;;;;;;2.92;79.77;99709.56;10131232;29;20065;-78
2022/04/09 22:11:09;;;;;;;1.20;1.10;;;;;;;2.99;79.30;99700.84;10147940;29;20057;-80
2022/04/09 22:16:10;;;;;;;1.88;1.10;;;;;;;3.01;79.34;99709.50;10148034;29;20116;-79
2022/04/09 22:21:16;;;;;;;2.90;0.90;;;;;;;2.87;79.75;99713.88;10145167;29;20069;-79
2022/04/09 22:26:18;;;;;;;1.10;0.98;;;;;;;2.88;79.79;99718.22;10118201;29;20397;-79
2022/04/09 22:31:19;;;;;;;1.40;1.00;;;;;;;2.88;79.76;99713.03;10116045;29;20128;-78
2022/04/09 22:36:21;;;;;;;2.10;1.25;;;;;;;2.80;80.07;99713.94;10114647;29;20057;-78
2022/04/09 22:41:23;;;;;;;1.10;1.00;;;;;;;2.87;79.40;99724.25;10112026;29;20621;-79
2022/04/09 22:46:25;;;;;;;3.20;0.93;;;;;;;2.90;79.14;99729.44;10114640;29;20057;-79
2022/04/09 22:51:26;;;;;;;1.30;0.88;;;;;;;2.88;79.10;99733.81;10099814;29;20064;-78
2022/04/09 22:56:28;;;;;;;1.83;1.20;;;;;;;2.79;79.40;99739.03;10111759;29;20567;-78
2022/04/09 23:01:29;;;;;;;1.33;0.75;;;;;;;2.82;79.37;99739.00;10111772;29;20464;-78
2022/04/09 23:06:32;;;;;;;1.38;1.10;;;;;;;2.83;79.24;99750.25;10122505;29;20153;-78
2022/04/09 23:11:33;;;;;;;1.58;0.93;;;;;;;2.78;79.37;99752.88;10128713;29;20049;-78
2022/04/09 23:16:35;;;;;;;2.65;1.10;;;;;;;2.84;78.93;99763.25;10133269;29;20041;-78
2022/04/09 23:21:37;;;;;;;2.00;1.27;;;;;;;2.71;79.84;99762.44;10125443;29;20045;-78
2022/04/09 23:26:38;;;;;;;2.67;1.10;;;;;;;2.78;79.45;99769.31;10115000;29;20056;-78
2022/04/09 23:31:42;;;;;;;1.65;1.20;;;;;;;2.76;79.73;99771.06;10125642;29;20053;-79
2022/04/09 23:36:50;;;;;;;1.20;1.10;;;;;;;2.82;79.16;99777.09;10142358;29;20057;-78
2022/04/09 23:41:58;;;;;;;1.13;1.00;;;;;;;2.76;79.26;99776.25;10142873;29;20073;-79
2022/04/09 23:47:18;;;;;;;2.80;1.20;;;;;;;2.82;78.68;99771.91;10126659;29;20060;-78